Time;durP1;ratioP1;P1;durP2;ratioP2;P2;SDS_P1;SDS_P2;PMS_P1;PMS_P2;Temp;Humidity;BMP_temperature;BMP_pressure;BME280_temperature;BME280_humidity;BME280_pressure;Samples;Min_cycle;Max_cycle;Signal;HPM_P1;HPM_P2
2021/07/11 00:00:08;;;;;;;0.20;0.20;;;;;;;;;;5072215;28;20405;-63
2021/07/11 00:02:34;;;;;;;0.20;0.20;;;;;;;;;;5072552;28;20467;-63
2021/07/11 00:05:01;;;;;;;0.30;0.30;;;;;;;;;;5072300;28;20985;-63
2021/07/11 00:07:29;;;;;;;0.20;0.20;;;;;;;;;;5072248;28;20428;-61
2021/07/11 00:09:56;;;;;;;0.20;0.20;;;;;;;;;;5072096;28;20501;-63
2021/07/11 00:12:22;;;;;;;0.20;0.20;;;;;;;;;;5072149;28;20402;-63
2021/07/11 00:14:48;;;;;;;0.30;0.30;;;;;;;;;;5072156;28;20798;-63
2021/07/11 00:17:14;;;;;;;0.20;0.20;;;;;;;;;;5072275;28;20414;-63
2021/07/11 00:19:40;;;;;;;0.30;0.30;;;;;;;;;;5072046;28;20463;-62
2021/07/11 00:22:06;;;;;;;0.30;0.30;;;;;;;;;;5071862;28;20471;-63
2021/07/11 00:24:33;;;;;;;0.30;0.30;;;;;;;;;;5071976;28;20464;-63
2021/07/11 00:26:59;;;;;;;0.20;0.20;;;;;;;;;;5071789;28;20410;-63
2021/07/11 00:29:25;;;;;;;0.20;0.20;;;;;;;;;;5071850;28;20167;-63
2021/07/11 00:31:51;;;;;;;0.20;0.20;;;;;;;;;;5071743;28;20408;-63
2021/07/11 00:34:17;;;;;;;0.20;0.20;;;;;;;;;;5071820;28;20417;-62
2021/07/11 00:36:43;;;;;;;0.20;0.20;;;;;;;;;;5071759;28;20409;-63
2021/07/11 00:39:09;;;;;;;0.20;0.20;;;;;;;;;;5071673;28;20887;-63
2021/07/11 00:41:42;;;;;;;0.30;0.30;;;;;;;;;;5071443;28;20400;-61
2021/07/11 00:44:08;;;;;;;0.20;0.20;;;;;;;;;;5071505;28;20958;-63
2021/07/11 00:46:35;;;;;;;0.20;0.20;;;;;;;;;;5071657;28;20445;-61
2021/07/11 00:49:02;;;;;;;0.30;0.30;;;;;;;;;;5071908;28;20409;-63
2021/07/11 00:51:28;;;;;;;0.30;0.30;;;;;;;;;;5071602;28;20448;-63
2021/07/11 00:53:54;;;;;;;0.20;0.20;;;;;;;;;;5071587;28;20833;-62
2021/07/11 00:56:20;;;;;;;0.30;0.30;;;;;;;;;;5071660;28;20798;-63
2021/07/11 00:58:46;;;;;;;0.30;0.30;;;;;;;;;;5071893;28;20466;-63
2021/07/11 01:01:18;;;;;;;0.20;0.20;;;;;;;;;;5071582;28;20433;-63
2021/07/11 01:03:47;;;;;;;0.20;0.20;;;;;;;;;;5071703;28;20401;-63
2021/07/11 01:06:19;;;;;;;0.20;0.20;;;;;;;;;;5053909;28;20492;-62
2021/07/11 01:09:06;;;;;;;0.28;0.28;;;;;;;;;;5071742;28;20178;-63
2021/07/11 01:11:40;;;;;;;0.30;0.30;;;;;;;;;;5071724;28;20221;-63
2021/07/11 01:14:06;;;;;;;0.30;0.30;;;;;;;;;;5071913;28;20163;-63
2021/07/11 01:16:33;;;;;;;0.20;0.20;;;;;;;;;;5071693;28;20390;-62
2021/07/11 01:19:05;;;;;;;0.30;0.30;;;;;;;;;;5071723;28;20394;-63
2021/07/11 01:21:33;;;;;;;0.30;0.30;;;;;;;;;;5079010;28;20252;-63
2021/07/11 01:24:05;;;;;;;0.30;0.30;;;;;;;;;;5082362;28;20172;-63
2021/07/11 01:26:33;;;;;;;0.20;0.20;;;;;;;;;;5081410;28;20881;-63
2021/07/11 01:28:59;;;;;;;0.27;0.27;;;;;;;;;;5073810;28;20644;-61
2021/07/11 01:31:26;;;;;;;0.30;0.30;;;;;;;;;;5071452;28;20886;-61
2021/07/11 01:33:53;;;;;;;0.20;0.20;;;;;;;;;;5071460;28;20397;-63
2021/07/11 01:36:21;;;;;;;0.30;0.30;;;;;;;;;;5071357;28;20437;-62
2021/07/11 01:38:48;;;;;;;0.30;0.30;;;;;;;;;;5071523;28;20401;-61
2021/07/11 01:41:14;;;;;;;0.20;0.20;;;;;;;;;;5071201;28;20402;-61
2021/07/11 01:43:41;;;;;;;0.30;0.30;;;;;;;;;;5071316;28;20413;-63
2021/07/11 01:46:08;;;;;;;0.30;0.30;;;;;;;;;;5071015;28;20554;-62
2021/07/11 01:48:34;;;;;;;0.20;0.20;;;;;;;;;;5071324;28;20417;-63
2021/07/11 01:51:01;;;;;;;0.30;0.30;;;;;;;;;;5070896;28;20401;-63
2021/07/11 01:53:31;;;;;;;0.20;0.20;;;;;;;;;;5071290;28;20470;-62
2021/07/11 01:55:57;;;;;;;0.30;0.30;;;;;;;;;;5071093;28;20430;-62
2021/07/11 01:58:24;;;;;;;0.30;0.30;;;;;;;;;;5071144;28;20448;-61
2021/07/11 02:00:51;;;;;;;0.20;0.20;;;;;;;;;;5070650;28;20455;-63
2021/07/11 02:03:18;;;;;;;0.30;0.30;;;;;;;;;;5070862;28;20515;-63
2021/07/11 02:05:45;;;;;;;0.20;0.20;;;;;;;;;;5070914;28;20834;-60
2021/07/11 02:08:12;;;;;;;0.20;0.20;;;;;;;;;;5071062;28;20906;-63
2021/07/11 02:10:38;;;;;;;0.30;0.30;;;;;;;;;;5070957;28;20484;-63
2021/07/11 02:13:09;;;;;;;0.30;0.30;;;;;;;;;;5074221;28;20437;-61
2021/07/11 02:15:37;;;;;;;0.30;0.30;;;;;;;;;;5074327;28;20464;-63
2021/07/11 02:18:04;;;;;;;0.20;0.20;;;;;;;;;;5074415;28;20645;-62
2021/07/11 02:20:30;;;;;;;0.30;0.30;;;;;;;;;;5074232;28;20778;-62
2021/07/11 02:22:57;;;;;;;0.30;0.30;;;;;;;;;;5074302;28;20437;-63
2021/07/11 02:25:23;;;;;;;0.30;0.30;;;;;;;;;;5074192;28;20834;-63
2021/07/11 02:27:51;;;;;;;0.20;0.20;;;;;;;;;;5074413;28;20435;-63
2021/07/11 02:30:18;;;;;;;0.30;0.30;;;;;;;;;;5074317;28;20402;-62
2021/07/11 02:32:49;;;;;;;0.30;0.30;;;;;;;;;;5074483;28;20402;-61
2021/07/11 02:35:15;;;;;;;0.30;0.30;;;;;;;;;;5074205;28;20472;-63
2021/07/11 02:37:49;;;;;;;0.30;0.30;;;;;;;;;;5074228;28;20434;-62
2021/07/11 02:40:16;;;;;;;0.30;0.30;;;;;;;;;;5074026;28;20416;-63
2021/07/11 02:42:42;;;;;;;0.30;0.30;;;;;;;;;;5074083;28;20441;-63
2021/07/11 02:45:08;;;;;;;0.30;0.30;;;;;;;;;;5073865;28;20873;-63
2021/07/11 02:47:38;;;;;;;0.30;0.30;;;;;;;;;;5074122;28;20966;-63
2021/07/11 02:50:05;;;;;;;0.20;0.20;;;;;;;;;;5073856;28;20406;-62
2021/07/11 02:52:31;;;;;;;0.30;0.30;;;;;;;;;;5073907;28;20202;-63
2021/07/11 02:55:08;;;;;;;0.20;0.20;;;;;;;;;;5055758;28;20516;-63
2021/07/11 02:57:35;;;;;;;0.30;0.30;;;;;;;;;;5073831;28;20873;-62
2021/07/11 03:00:02;;;;;;;0.30;0.30;;;;;;;;;;5073723;28;20579;-63
2021/07/11 03:02:29;;;;;;;0.30;0.30;;;;;;;;;;5073962;28;20409;-63
2021/07/11 03:04:55;;;;;;;0.30;0.30;;;;;;;;;;5073594;28;20485;-63
2021/07/11 03:07:21;;;;;;;0.20;0.20;;;;;;;;;;5073471;28;20401;-63
2021/07/11 03:09:48;;;;;;;0.20;0.20;;;;;;;;;;5073135;28;20398;-62
2021/07/11 03:12:16;;;;;;;0.20;0.20;;;;;;;;;;5073368;28;20402;-63
2021/07/11 03:14:43;;;;;;;0.30;0.30;;;;;;;;;;5073285;28;20508;-63
2021/07/11 03:17:10;;;;;;;0.30;0.30;;;;;;;;;;5073372;28;20214;-62
2021/07/11 03:19:37;;;;;;;0.20;0.20;;;;;;;;;;5073323;28;20409;-63
2021/07/11 03:22:05;;;;;;;0.20;0.20;;;;;;;;;;5072885;28;20406;-63
2021/07/11 03:24:31;;;;;;;0.20;0.20;;;;;;;;;;5071961;28;20288;-63
2021/07/11 03:26:58;;;;;;;0.30;0.30;;;;;;;;;;5073084;28;20804;-63
2021/07/11 03:29:32;;;;;;;0.30;0.30;;;;;;;;;;5072981;28;20408;-63
2021/07/11 03:31:59;;;;;;;0.20;0.20;;;;;;;;;;5072867;28;20441;-63
2021/07/11 03:34:29;;;;;;;0.20;0.20;;;;;;;;;;5072737;28;20203;-63
2021/07/11 03:36:56;;;;;;;0.20;0.20;;;;;;;;;;5072881;28;20412;-63
2021/07/11 03:39:23;;;;;;;0.20;0.20;;;;;;;;;;5072759;28;20406;-63
2021/07/11 03:41:50;;;;;;;0.20;0.20;;;;;;;;;;5072511;28;20500;-63
2021/07/11 03:44:16;;;;;;;0.20;0.20;;;;;;;;;;5072574;28;20507;-63
2021/07/11 03:46:44;;;;;;;0.20;0.20;;;;;;;;;;5072645;28;20437;-63
2021/07/11 03:49:11;;;;;;;0.20;0.20;;;;;;;;;;5054686;28;20599;-63
2021/07/11 03:51:39;;;;;;;0.30;0.30;;;;;;;;;;5072810;28;20414;-63
2021/07/11 03:54:05;;;;;;;0.20;0.20;;;;;;;;;;5072438;28;20901;-63
2021/07/11 03:56:33;;;;;;;0.20;0.20;;;;;;;;;;5072423;28;20834;-63
2021/07/11 03:59:00;;;;;;;0.30;0.30;;;;;;;;;;5072564;28;20402;-63
2021/07/11 04:01:28;;;;;;;0.30;0.30;;;;;;;;;;5072184;28;20406;-63
2021/07/11 04:03:55;;;;;;;0.30;0.30;;;;;;;;;;5072182;28;20401;-62
2021/07/11 04:06:21;;;;;;;0.30;0.30;;;;;;;;;;5072203;28;20453;-61
2021/07/11 04:08:48;;;;;;;0.30;0.30;;;;;;;;;;5072248;28;20421;-63
2021/07/11 04:11:15;;;;;;;0.30;0.30;;;;;;;;;;5071886;28;20422;-62
2021/07/11 04:13:41;;;;;;;0.30;0.30;;;;;;;;;;5072169;28;20401;-63
2021/07/11 04:16:08;;;;;;;0.20;0.20;;;;;;;;;;5071997;28;20501;-63
2021/07/11 04:18:56;;;;;;;0.30;0.30;;;;;;;;;;5071986;28;20918;-62
2021/07/11 04:21:23;;;;;;;0.30;0.30;;;;;;;;;;5071679;28;20413;-63
2021/07/11 04:23:51;;;;;;;0.20;0.20;;;;;;;;;;5071979;28;20409;-63
2021/07/11 04:26:17;;;;;;;0.30;0.30;;;;;;;;;;5071736;28;20465;-62
2021/07/11 04:28:44;;;;;;;0.30;0.30;;;;;;;;;;5053869;28;20445;-63
2021/07/11 04:31:11;;;;;;;0.20;0.20;;;;;;;;;;5071655;28;20416;-63
2021/07/11 04:33:37;;;;;;;0.20;0.20;;;;;;;;;;5071905;28;20447;-62
2021/07/11 04:36:05;;;;;;;0.30;0.30;;;;;;;;;;5072537;28;20823;-63
2021/07/11 04:38:31;;;;;;;0.30;0.30;;;;;;;;;;5071840;28;20406;-63
2021/07/11 04:40:58;;;;;;;0.30;0.30;;;;;;;;;;5071478;28;20941;-63
2021/07/11 04:43:24;;;;;;;0.30;0.30;;;;;;;;;;5071636;28;20409;-63
2021/07/11 04:45:50;;;;;;;0.30;0.30;;;;;;;;;;5071571;28;20457;-63
2021/07/11 04:48:16;;;;;;;0.30;0.30;;;;;;;;;;5071915;28;20405;-63
2021/07/11 04:50:44;;;;;;;0.30;0.30;;;;;;;;;;5071546;28;20455;-63
2021/07/11 04:53:10;;;;;;;0.20;0.20;;;;;;;;;;5071765;28;20255;-63
2021/07/11 04:55:36;;;;;;;0.30;0.30;;;;;;;;;;5072061;28;20522;-63
2021/07/11 04:58:02;;;;;;;0.30;0.30;;;;;;;;;;5071783;28;20500;-63
2021/07/11 05:00:28;;;;;;;0.30;0.30;;;;;;;;;;5053332;28;20456;-63
2021/07/11 05:02:54;;;;;;;0.30;0.30;;;;;;;;;;5071579;28;20409;-63
2021/07/11 05:05:20;;;;;;;0.30;0.30;;;;;;;;;;5071263;28;20465;-61
2021/07/11 05:07:46;;;;;;;0.30;0.30;;;;;;;;;;5071836;28;20405;-61
2021/07/11 05:10:12;;;;;;;0.20;0.20;;;;;;;;;;5071296;28;20412;-61
2021/07/11 05:12:38;;;;;;;0.30;0.20;;;;;;;;;;5071478;28;20408;-61
2021/07/11 05:15:05;;;;;;;0.20;0.20;;;;;;;;;;5053408;28;20438;-63
2021/07/11 05:17:31;;;;;;;0.20;0.20;;;;;;;;;;5071623;28;20751;-61
2021/07/11 05:19:57;;;;;;;0.30;0.30;;;;;;;;;;5071290;28;20408;-61
2021/07/11 05:22:23;;;;;;;0.30;0.30;;;;;;;;;;5071505;28;20409;-60
2021/07/11 05:24:49;;;;;;;0.30;0.30;;;;;;;;;;5071426;28;20488;-63
2021/07/11 05:27:15;;;;;;;0.30;0.30;;;;;;;;;;5071403;28;20412;-63
2021/07/11 05:29:41;;;;;;;0.30;0.30;;;;;;;;;;5071387;28;20506;-61
2021/07/11 05:32:07;;;;;;;0.30;0.30;;;;;;;;;;5053186;28;20452;-61
2021/07/11 05:34:33;;;;;;;0.20;0.20;;;;;;;;;;5071112;28;20502;-61
2021/07/11 05:37:00;;;;;;;0.20;0.20;;;;;;;;;;5071374;28;20440;-61
2021/07/11 05:39:25;;;;;;;0.30;0.30;;;;;;;;;;5071146;28;20500;-61
2021/07/11 05:41:51;;;;;;;0.30;0.30;;;;;;;;;;5071056;28;20497;-61
2021/07/11 05:44:18;;;;;;;0.30;0.20;;;;;;;;;;5071012;28;20409;-61
2021/07/11 05:46:44;;;;;;;0.30;0.30;;;;;;;;;;5072469;28;20924;-61
2021/07/11 05:49:10;;;;;;;0.30;0.30;;;;;;;;;;5075129;28;20516;-61
2021/07/11 05:51:36;;;;;;;0.30;0.30;;;;;;;;;;5075618;28;20465;-61
2021/07/11 05:54:02;;;;;;;0.30;0.30;;;;;;;;;;5075403;28;20401;-60
2021/07/11 05:56:28;;;;;;;0.30;0.30;;;;;;;;;;5075447;28;20492;-60
2021/07/11 05:58:54;;;;;;;0.30;0.20;;;;;;;;;;5075183;28;20440;-59
2021/07/11 06:01:20;;;;;;;0.30;0.20;;;;;;;;;;5074698;28;20920;-62
2021/07/11 06:03:46;;;;;;;0.30;0.20;;;;;;;;;;5074952;28;20396;-61
2021/07/11 06:06:12;;;;;;;0.30;0.20;;;;;;;;;;5074650;28;20525;-62
2021/07/11 06:08:38;;;;;;;0.30;0.20;;;;;;;;;;5074653;28;20411;-61
2021/07/11 06:11:04;;;;;;;0.30;0.20;;;;;;;;;;5074615;28;20905;-61
2021/07/11 06:13:30;;;;;;;0.27;0.27;;;;;;;;;;5074611;28;20432;-62
2021/07/11 06:15:56;;;;;;;0.30;0.30;;;;;;;;;;5074463;28;20495;-63
2021/07/11 06:18:22;;;;;;;0.30;0.30;;;;;;;;;;5074403;28;20408;-63
2021/07/11 06:20:48;;;;;;;0.30;0.30;;;;;;;;;;5074113;28;20410;-63
2021/07/11 06:23:14;;;;;;;0.20;0.20;;;;;;;;;;5074258;28;20401;-63
2021/07/11 06:25:40;;;;;;;0.20;0.20;;;;;;;;;;5074167;28;20460;-62
2021/07/11 06:28:06;;;;;;;0.20;0.20;;;;;;;;;;5074233;28;20431;-64
2021/07/11 06:30:32;;;;;;;0.30;0.30;;;;;;;;;;5073971;28;20894;-63
2021/07/11 06:32:58;;;;;;;0.20;0.20;;;;;;;;;;5074118;28;20455;-63
2021/07/11 06:35:25;;;;;;;0.20;0.20;;;;;;;;;;5074020;28;20457;-60
2021/07/11 06:37:51;;;;;;;0.20;0.20;;;;;;;;;;5073969;28;20437;-62
2021/07/11 06:40:19;;;;;;;0.30;0.30;;;;;;;;;;5073951;28;20386;-63
2021/07/11 06:42:45;;;;;;;0.20;0.20;;;;;;;;;;5074098;28;20547;-63
2021/07/11 06:45:12;;;;;;;0.20;0.20;;;;;;;;;;5073813;28;20514;-63
2021/07/11 06:47:38;;;;;;;0.20;0.20;;;;;;;;;;5073951;28;20907;-63
2021/07/11 06:50:05;;;;;;;0.20;0.20;;;;;;;;;;5073677;28;20770;-63
2021/07/11 06:52:32;;;;;;;0.20;0.20;;;;;;;;;;5073666;28;20384;-63
2021/07/11 06:54:58;;;;;;;0.30;0.30;;;;;;;;;;5073384;28;20721;-63
2021/07/11 06:57:24;;;;;;;0.30;0.30;;;;;;;;;;5073527;28;20444;-63
2021/07/11 06:59:50;;;;;;;0.20;0.20;;;;;;;;;;5073359;28;20489;-63
2021/07/11 07:02:16;;;;;;;0.20;0.20;;;;;;;;;;5073582;28;20435;-63
2021/07/11 07:04:42;;;;;;;0.20;0.20;;;;;;;;;;5073380;28;20464;-63
2021/07/11 07:07:08;;;;;;;0.20;0.20;;;;;;;;;;5073457;28;20384;-63
2021/07/11 07:09:34;;;;;;;0.20;0.20;;;;;;;;;;5073257;28;20401;-64
2021/07/11 07:12:00;;;;;;;0.20;0.20;;;;;;;;;;5073322;28;20437;-63
2021/07/11 07:14:26;;;;;;;0.20;0.20;;;;;;;;;;5073353;28;20417;-63
2021/07/11 07:16:52;;;;;;;0.20;0.20;;;;;;;;;;5073442;28;20405;-63
2021/07/11 07:19:18;;;;;;;0.20;0.20;;;;;;;;;;5073256;28;20429;-63
2021/07/11 07:21:44;;;;;;;0.20;0.20;;;;;;;;;;5073112;28;20410;-63
2021/07/11 07:24:10;;;;;;;0.20;0.20;;;;;;;;;;5072995;28;20828;-63
2021/07/11 07:26:36;;;;;;;0.20;0.20;;;;;;;;;;5073327;28;20829;-63
2021/07/11 07:29:02;;;;;;;0.20;0.20;;;;;;;;;;5073107;28;20385;-61
2021/07/11 07:31:28;;;;;;;0.20;0.20;;;;;;;;;;5072745;28;20781;-63
2021/07/11 07:33:54;;;;;;;0.20;0.20;;;;;;;;;;5073085;28;20380;-61
2021/07/11 07:36:20;;;;;;;0.20;0.20;;;;;;;;;;5073064;28;20449;-63
2021/07/11 07:38:46;;;;;;;0.20;0.20;;;;;;;;;;5072765;28;20427;-63
2021/07/11 07:41:12;;;;;;;0.20;0.20;;;;;;;;;;5072521;28;20425;-63
2021/07/11 07:43:38;;;;;;;0.20;0.20;;;;;;;;;;5054723;28;20425;-63
2021/07/11 07:46:05;;;;;;;0.20;0.20;;;;;;;;;;5072556;28;20469;-61
2021/07/11 07:48:31;;;;;;;0.20;0.20;;;;;;;;;;5072570;28;20401;-63
2021/07/11 07:50:58;;;;;;;0.20;0.20;;;;;;;;;;5072308;28;20405;-63
2021/07/11 07:53:24;;;;;;;0.20;0.20;;;;;;;;;;5054551;28;20559;-63
2021/07/11 07:55:50;;;;;;;0.20;0.20;;;;;;;;;;5072576;28;20433;-63
2021/07/11 07:58:16;;;;;;;0.20;0.20;;;;;;;;;;5072622;28;20851;-63
2021/07/11 08:00:43;;;;;;;0.20;0.20;;;;;;;;;;5072876;28;20804;-63
2021/07/11 08:03:09;;;;;;;0.20;0.20;;;;;;;;;;5072522;28;20792;-62
2021/07/11 08:05:35;;;;;;;0.20;0.20;;;;;;;;;;5072082;28;20959;-63
2021/07/11 08:08:01;;;;;;;0.20;0.20;;;;;;;;;;5072182;28;20420;-63
2021/07/11 08:10:27;;;;;;;0.20;0.20;;;;;;;;;;5071479;28;20489;-63
2021/07/11 08:12:53;;;;;;;0.20;0.20;;;;;;;;;;5072217;28;20452;-63
2021/07/11 08:15:19;;;;;;;0.20;0.20;;;;;;;;;;5072148;28;20433;-63
2021/07/11 08:17:49;;;;;;;0.20;0.20;;;;;;;;;;5072215;28;20384;-63
2021/07/11 08:20:16;;;;;;;0.20;0.20;;;;;;;;;;5071719;28;20413;-63
2021/07/11 08:22:42;;;;;;;0.20;0.20;;;;;;;;;;5072283;28;20413;-63
2021/07/11 08:25:10;;;;;;;0.20;0.20;;;;;;;;;;5071847;28;20464;-63
2021/07/11 08:27:37;;;;;;;0.20;0.20;;;;;;;;;;5071983;28;20770;-63
2021/07/11 08:30:09;;;;;;;0.20;0.20;;;;;;;;;;5071750;28;20376;-63
2021/07/11 08:32:35;;;;;;;0.20;0.20;;;;;;;;;;5071900;28;20386;-63
2021/07/11 08:35:02;;;;;;;0.20;0.20;;;;;;;;;;5071521;28;20463;-63
2021/07/11 08:37:28;;;;;;;0.20;0.20;;;;;;;;;;5071801;28;20551;-63
2021/07/11 08:39:54;;;;;;;0.20;0.20;;;;;;;;;;5053623;28;20422;-62
2021/07/11 08:42:23;;;;;;;0.20;0.20;;;;;;;;;;5071874;28;20961;-63
2021/07/11 08:44:49;;;;;;;0.20;0.20;;;;;;;;;;5071563;28;20449;-62
2021/07/11 08:47:15;;;;;;;0.20;0.20;;;;;;;;;;5071601;28;20409;-61
2021/07/11 08:49:41;;;;;;;0.20;0.20;;;;;;;;;;5071488;28;20453;-63
2021/07/11 08:52:07;;;;;;;0.20;0.20;;;;;;;;;;5071308;28;20804;-62
2021/07/11 08:54:33;;;;;;;0.20;0.20;;;;;;;;;;5071506;28;20954;-63
2021/07/11 08:57:00;;;;;;;0.23;0.23;;;;;;;;;;5071583;28;20410;-63
2021/07/11 08:59:28;;;;;;;0.20;0.20;;;;;;;;;;5071618;28;20898;-63
2021/07/11 09:01:54;;;;;;;0.20;0.20;;;;;;;;;;5071259;28;20755;-63
2021/07/11 09:04:20;;;;;;;0.20;0.20;;;;;;;;;;5071295;28;20441;-63
2021/07/11 09:06:49;;;;;;;0.20;0.20;;;;;;;;;;5071459;28;20401;-63
2021/07/11 09:09:22;;;;;;;0.30;0.30;;;;;;;;;;5071411;28;20406;-62
2021/07/11 09:11:50;;;;;;;0.20;0.20;;;;;;;;;;5071205;28;20409;-62
2021/07/11 09:14:16;;;;;;;0.20;0.20;;;;;;;;;;5071298;28;20405;-62
2021/07/11 09:16:46;;;;;;;0.20;0.20;;;;;;;;;;5071240;28;20846;-63
2021/07/11 09:19:21;;;;;;;0.20;0.20;;;;;;;;;;5071447;28;20777;-63
2021/07/11 09:22:05;;;;;;;0.20;0.20;;;;;;;;;;5072897;28;20405;-63
2021/07/11 09:24:35;;;;;;;0.20;0.20;;;;;;;;;;5075394;28;20461;-63
2021/07/11 09:27:12;;;;;;;0.23;0.23;;;;;;;;;;5075273;28;20886;-63
2021/07/11 09:29:39;;;;;;;0.20;0.20;;;;;;;;;;5075146;28;20433;-63
2021/07/11 09:32:05;;;;;;;0.20;0.20;;;;;;;;;;5075109;28;20485;-62
2021/07/11 09:34:32;;;;;;;0.20;0.20;;;;;;;;;;5074942;28;20553;-63
2021/07/11 09:37:17;;;;;;;0.20;0.20;;;;;;;;;;5075063;28;20496;-63
2021/07/11 09:39:46;;;;;;;0.20;0.20;;;;;;;;;;5057034;28;20435;-63
2021/07/11 09:42:22;;;;;;;0.20;0.20;;;;;;;;;;5075369;28;20380;-62
2021/07/11 09:44:48;;;;;;;0.20;0.20;;;;;;;;;;5074863;28;20486;-63
2021/07/11 09:47:16;;;;;;;0.20;0.20;;;;;;;;;;5074967;28;20437;-62
2021/07/11 09:49:42;;;;;;;0.20;0.20;;;;;;;;;;5074791;28;20383;-63
2021/07/11 09:52:08;;;;;;;0.20;0.20;;;;;;;;;;5074683;28;20496;-63
2021/07/11 09:54:34;;;;;;;0.20;0.20;;;;;;;;;;5074739;28;20459;-63
2021/07/11 09:57:06;;;;;;;0.20;0.20;;;;;;;;;;5075077;28;20376;-63
2021/07/11 09:59:32;;;;;;;0.20;0.20;;;;;;;;;;5074733;28;20406;-63
2021/07/11 10:01:58;;;;;;;0.20;0.20;;;;;;;;;;5074362;28;20413;-62
2021/07/11 10:04:24;;;;;;;0.20;0.20;;;;;;;;;;5074356;28;20461;-61
2021/07/11 10:06:51;;;;;;;0.20;0.20;;;;;;;;;;5074572;28;20415;-63
2021/07/11 10:09:17;;;;;;;0.20;0.20;;;;;;;;;;5074611;28;20405;-63
2021/07/11 10:11:43;;;;;;;0.20;0.20;;;;;;;;;;5074325;28;20405;-61
2021/07/11 10:14:09;;;;;;;0.20;0.20;;;;;;;;;;5074436;28;20441;-63
2021/07/11 10:16:36;;;;;;;0.20;0.20;;;;;;;;;;5074636;28;20463;-63
2021/07/11 10:19:02;;;;;;;0.20;0.20;;;;;;;;;;5074638;28;20902;-63
2021/07/11 10:21:29;;;;;;;0.20;0.20;;;;;;;;;;5074196;28;20501;-63
2021/07/11 10:23:55;;;;;;;0.20;0.20;;;;;;;;;;5087713;28;20417;-63
2021/07/11 10:26:22;;;;;;;0.20;0.20;;;;;;;;;;5086811;28;20465;-62
2021/07/11 10:28:50;;;;;;;0.20;0.20;;;;;;;;;;5080637;28;20414;-63
2021/07/11 10:31:22;;;;;;;0.20;0.20;;;;;;;;;;5074211;28;20417;-63
2021/07/11 10:33:49;;;;;;;0.20;0.20;;;;;;;;;;5073867;28;20410;-63
2021/07/11 10:36:17;;;;;;;0.20;0.20;;;;;;;;;;5078480;22;20593;-65
2021/07/11 10:38:54;;;;;;;0.20;0.20;;;;;;;;;;5036053;28;20417;-63
2021/07/11 10:41:21;;;;;;;0.20;0.20;;;;;;;;;;5053631;28;20397;-64
2021/07/11 10:43:59;;;;;;;0.20;0.20;;;;;;;;;;5053905;28;20366;-64
2021/07/11 10:46:35;;;;;;;0.20;0.20;;;;;;;;;;5053683;28;21061;-66
2021/07/11 10:49:13;;;;;;;0.20;0.20;;;;;;;;;;5053750;28;20411;-66
2021/07/11 10:51:42;;;;;;;0.20;0.20;;;;;;;;;;5053279;28;20405;-65
2021/07/11 10:54:17;;;;;;;0.20;0.20;;;;;;;;;;5053684;28;20370;-66
2021/07/11 10:56:44;;;;;;;0.20;0.20;;;;;;;;;;5053608;28;20401;-64
2021/07/11 10:59:10;;;;;;;0.20;0.20;;;;;;;;;;5053623;28;20403;-66
2021/07/11 11:01:39;;;;;;;0.20;0.20;;;;;;;;;;5053378;28;20425;-64
2021/07/11 11:04:16;;;;;;;0.20;0.20;;;;;;;;;;5053487;28;20826;-65
2021/07/11 11:06:42;;;;;;;0.20;0.20;;;;;;;;;;5053642;28;20437;-64
2021/07/11 11:09:08;;;;;;;0.20;0.20;;;;;;;;;;5053472;28;20406;-65
2021/07/11 11:11:34;;;;;;;0.20;0.20;;;;;;;;;;5053185;28;20394;-64
2021/07/11 11:14:06;;;;;;;0.20;0.20;;;;;;;;;;5053343;28;20387;-63
2021/07/11 11:16:47;;;;;;;0.20;0.20;;;;;;;;;;5053070;28;20492;-64
2021/07/11 11:19:14;;;;;;;0.20;0.20;;;;;;;;;;5053339;28;20796;-65
2021/07/11 11:21:40;;;;;;;0.20;0.20;;;;;;;;;;5053092;28;20489;-65
2021/07/11 11:24:06;;;;;;;0.20;0.20;;;;;;;;;;5053188;28;20398;-63
2021/07/11 11:26:33;;;;;;;0.20;0.20;;;;;;;;;;5052987;28;20488;-63
2021/07/11 11:29:00;;;;;;;0.20;0.20;;;;;;;;;;5052929;28;20407;-63
2021/07/11 11:31:27;;;;;;;0.20;0.20;;;;;;;;;;5052755;28;20839;-64
2021/07/11 11:33:53;;;;;;;0.20;0.20;;;;;;;;;;5053043;28;20481;-63
2021/07/11 11:36:27;;;;;;;0.20;0.20;;;;;;;;;;5052777;28;20464;-65
2021/07/11 11:38:53;;;;;;;0.20;0.20;;;;;;;;;;5052861;28;20961;-64
2021/07/11 11:41:21;;;;;;;0.20;0.20;;;;;;;;;;5052583;28;20411;-64
2021/07/11 11:43:50;;;;;;;0.20;0.20;;;;;;;;;;5052000;28;20976;-64
2021/07/11 11:46:26;;;;;;;0.20;0.20;;;;;;;;;;5052438;28;20484;-65
2021/07/11 11:48:59;;;;;;;0.20;0.20;;;;;;;;;;5052680;28;20946;-64
2021/07/11 11:51:25;;;;;;;0.20;0.20;;;;;;;;;;5052492;28;20457;-65
2021/07/11 11:53:51;;;;;;;0.20;0.20;;;;;;;;;;5052482;28;20413;-65
2021/07/11 11:56:17;;;;;;;0.20;0.20;;;;;;;;;;5052589;28;20437;-64
2021/07/11 11:58:43;;;;;;;0.20;0.20;;;;;;;;;;5052467;28;20755;-63
2021/07/11 12:01:11;;;;;;;0.20;0.20;;;;;;;;;;5052147;28;20741;-62
2021/07/11 12:03:37;;;;;;;0.20;0.20;;;;;;;;;;5052367;28;20409;-66
2021/07/11 12:06:04;;;;;;;0.20;0.20;;;;;;;;;;5052364;28;20548;-65
2021/07/11 12:08:34;;;;;;;0.20;0.20;;;;;;;;;;5052324;28;20442;-65
2021/07/11 12:11:00;;;;;;;0.20;0.20;;;;;;;;;;5052125;28;20464;-64
2021/07/11 12:13:28;;;;;;;0.20;0.20;;;;;;;;;;5052341;28;20420;-65
2021/07/11 12:16:11;;;;;;;0.20;0.20;;;;;;;;;;5052173;28;20412;-66
2021/07/11 12:18:53;;;;;;;0.20;0.20;;;;;;;;;;5052294;28;20385;-64
2021/07/11 12:21:27;;;;;;;0.20;0.20;;;;;;;;;;5051949;28;20410;-63
2021/07/11 12:24:09;;;;;;;0.20;0.20;;;;;;;;;;5052456;28;20471;-65
2021/07/11 12:26:38;;;;;;;0.20;0.20;;;;;;;;;;5052043;28;20826;-66
2021/07/11 12:29:04;;;;;;;0.20;0.20;;;;;;;;;;5051912;28;20749;-65
2021/07/11 12:31:31;;;;;;;0.20;0.20;;;;;;;;;;5051738;28;20378;-65
2021/07/11 12:33:58;;;;;;;0.20;0.20;;;;;;;;;;5052074;28;20414;-65
2021/07/11 12:36:24;;;;;;;0.20;0.20;;;;;;;;;;5051932;28;20423;-66
2021/07/11 12:38:50;;;;;;;0.20;0.20;;;;;;;;;;5051833;28;20389;-65
2021/07/11 12:41:16;;;;;;;0.20;0.20;;;;;;;;;;5051541;28;20403;-67
2021/07/11 12:43:49;;;;;;;0.20;0.20;;;;;;;;;;5051704;28;20381;-63
2021/07/11 12:46:16;;;;;;;0.20;0.20;;;;;;;;;;5051778;28;20444;-64
2021/07/11 12:48:51;;;;;;;0.20;0.20;;;;;;;;;;5052183;28;20429;-66
2021/07/11 12:51:20;;;;;;;0.20;0.20;;;;;;;;;;5051459;28;20438;-65
2021/07/11 12:53:47;;;;;;;0.20;0.20;;;;;;;;;;5051160;28;20404;-65
2021/07/11 12:56:15;;;;;;;0.20;0.20;;;;;;;;;;5051452;28;21012;-64
2021/07/11 12:58:43;;;;;;;0.20;0.20;;;;;;;;;;5051691;28;20873;-62
2021/07/11 13:01:09;;;;;;;0.20;0.20;;;;;;;;;;5052048;28;20469;-64
2021/07/11 13:03:35;;;;;;;0.20;0.20;;;;;;;;;;5051560;28;20406;-64
2021/07/11 13:06:01;;;;;;;0.20;0.20;;;;;;;;;;5051431;28;20527;-65
2021/07/11 13:08:27;;;;;;;0.20;0.20;;;;;;;;;;5051420;28;20390;-66
2021/07/11 13:10:53;;;;;;;0.20;0.20;;;;;;;;;;5051217;28;20765;-65
2021/07/11 13:13:20;;;;;;;0.20;0.20;;;;;;;;;;5051664;28;20377;-66
2021/07/11 13:15:46;;;;;;;0.20;0.20;;;;;;;;;;5052006;28;20430;-65
2021/07/11 13:18:13;;;;;;;0.20;0.20;;;;;;;;;;5050829;28;20393;-64
2021/07/11 13:20:40;;;;;;;0.20;0.20;;;;;;;;;;5050536;28;20754;-63
2021/07/11 13:23:06;;;;;;;0.20;0.20;;;;;;;;;;5051145;28;20407;-64
2021/07/11 13:25:32;;;;;;;0.20;0.20;;;;;;;;;;5051331;28;20497;-64
2021/07/11 13:27:58;;;;;;;0.20;0.20;;;;;;;;;;5051157;28;20416;-65
2021/07/11 13:30:26;;;;;;;0.20;0.20;;;;;;;;;;5050923;28;20485;-65
2021/07/11 13:32:53;;;;;;;0.20;0.20;;;;;;;;;;5051573;28;20406;-65
2021/07/11 13:35:19;;;;;;;0.20;0.20;;;;;;;;;;5051121;28;20492;-65
2021/07/11 13:37:45;;;;;;;0.20;0.20;;;;;;;;;;5051396;28;20410;-65
2021/07/11 13:40:11;;;;;;;0.20;0.20;;;;;;;;;;5033243;28;20389;-65
2021/07/11 13:42:37;;;;;;;0.20;0.20;;;;;;;;;;5051151;28;20506;-64
2021/07/11 13:45:05;;;;;;;0.20;0.20;;;;;;;;;;5051357;28;20468;-66
2021/07/11 13:47:33;;;;;;;0.20;0.20;;;;;;;;;;5051136;28;20422;-65
2021/07/11 13:49:59;;;;;;;0.20;0.20;;;;;;;;;;5050926;28;20918;-65
2021/07/11 13:52:25;;;;;;;0.20;0.20;;;;;;;;;;5051038;28;20382;-65
2021/07/11 13:54:51;;;;;;;0.20;0.20;;;;;;;;;;5050967;28;20414;-65
2021/07/11 13:57:17;;;;;;;0.20;0.20;;;;;;;;;;5051009;28;20438;-65
2021/07/11 13:59:43;;;;;;;0.20;0.20;;;;;;;;;;5050796;28;20895;-65
2021/07/11 14:02:09;;;;;;;0.20;0.20;;;;;;;;;;5050668;28;20405;-65
2021/07/11 14:04:35;;;;;;;0.20;0.20;;;;;;;;;;5050722;28;20820;-65
2021/07/11 14:07:01;;;;;;;0.20;0.20;;;;;;;;;;5051279;28;20407;-65
2021/07/11 14:09:27;;;;;;;0.20;0.20;;;;;;;;;;5054468;28;20403;-65
2021/07/11 14:11:53;;;;;;;0.20;0.20;;;;;;;;;;5054338;28;20409;-65
2021/07/11 14:14:19;;;;;;;0.20;0.20;;;;;;;;;;5054537;28;20767;-65
2021/07/11 14:16:45;;;;;;;0.20;0.20;;;;;;;;;;5054242;28;20419;-65
2021/07/11 14:19:12;;;;;;;0.20;0.20;;;;;;;;;;5054259;28;20425;-65
2021/07/11 14:21:39;;;;;;;0.20;0.20;;;;;;;;;;5054048;28;20920;-65
2021/07/11 14:24:06;;;;;;;0.20;0.20;;;;;;;;;;5054362;28;20419;-65
2021/07/11 14:26:32;;;;;;;0.20;0.20;;;;;;;;;;5054546;28;20457;-66
2021/07/11 14:28:58;;;;;;;0.20;0.20;;;;;;;;;;5054146;28;20418;-65
2021/07/11 14:31:24;;;;;;;0.20;0.20;;;;;;;;;;5053622;28;20398;-65
2021/07/11 14:33:50;;;;;;;0.20;0.20;;;;;;;;;;5054042;28;20804;-66
2021/07/11 14:36:16;;;;;;;0.20;0.20;;;;;;;;;;5053808;28;20667;-65
2021/07/11 14:38:42;;;;;;;0.20;0.20;;;;;;;;;;5054190;28;20411;-64
2021/07/11 14:41:08;;;;;;;0.20;0.20;;;;;;;;;;5053555;28;20556;-65
2021/07/11 14:43:34;;;;;;;0.20;0.20;;;;;;;;;;5053755;28;20432;-65